Time;durP1;ratioP1;P1;durP2;ratioP2;P2;SDS_P1;SDS_P2;PMS_P1;PMS_P2;Temp;Humidity;BMP_temperature;BMP_pressure;BME280_temperature;BME280_humidity;BME280_pressure;Samples;Min_cycle;Max_cycle;Signal;HPM_P1;HPM_P2
2022/06/19 04:31:17;;;;;;;;;14.25;11.25;;;;;21.89;55.14;100565.00;5026358;28;45501;-70
2022/06/19 04:33:42;;;;;;;;;13.50;10.75;;;;;21.94;54.73;100567.31;5016496;28;46978;-71
2022/06/19 04:36:11;;;;;;;;;13.00;13.00;;;;;21.98;54.66;100557.84;5021682;28;45281;-71
2022/06/19 04:38:38;;;;;;;;;11.00;11.00;;;;;21.96;53.99;100568.00;5016555;28;45293;-71
2022/06/19 04:41:03;;;;;;;;;8.50;8.50;;;;;21.98;54.06;100576.94;5016897;28;45303;-71
2022/06/19 04:43:29;;;;;;;;;11.25;9.75;;;;;22.06;53.84;100591.59;5016314;28;45693;-71
2022/06/19 04:46:05;;;;;;;;;8.25;8.25;;;;;22.09;54.68;100572.19;5016667;28;45459;-71
2022/06/19 04:48:31;;;;;;;;;9.00;8.75;;;;;22.15;54.78;100607.09;5015465;28;45314;-71
2022/06/19 04:50:57;;;;;;;;;13.00;12.00;;;;;22.18;53.89;100570.44;5016782;28;45345;-72
2022/06/19 04:53:23;;;;;;;;;12.50;11.00;;;;;22.17;53.81;100574.16;5016075;28;45990;-71
2022/06/19 04:55:48;;;;;;;;;11.25;7.25;;;;;22.13;53.76;100535.38;5016384;28;45408;-72
2022/06/19 04:58:13;;;;;;;;;11.50;9.25;;;;;22.11;53.23;100553.78;5016476;28;45538;-71
2022/06/19 05:00:40;;;;;;;;;12.75;9.50;;;;;22.25;52.89;100549.72;5016296;28;45514;-71
2022/06/19 05:03:06;;;;;;;;;12.00;10.25;;;;;22.14;53.15;100511.66;5015854;28;45437;-72
2022/06/19 05:05:31;;;;;;;;;12.75;11.50;;;;;22.10;53.22;100543.00;5016316;28;45226;-71
2022/06/19 05:07:56;;;;;;;;;11.50;9.25;;;;;22.04;53.04;100573.63;5015638;28;45293;-70
2022/06/19 05:10:21;;;;;;;;;9.25;9.00;;;;;22.03;53.76;100616.44;5015949;28;45402;-72
2022/06/19 05:12:47;;;;;;;;;6.75;5.00;;;;;22.09;53.09;100643.19;5015798;28;45965;-71
2022/06/19 05:15:13;;;;;;;;;10.50;9.50;;;;;22.10;53.09;100611.28;5015856;28;46411;-71
2022/06/19 05:17:38;;;;;;;;;9.25;9.25;;;;;22.06;53.24;100534.25;5015946;28;45536;-71
2022/06/19 05:20:04;;;;;;;;;9.00;9.00;;;;;22.04;54.29;100494.44;5016138;28;45274;-72
2022/06/19 05:22:31;;;;;;;;;9.00;9.00;;;;;22.07;53.64;100502.34;5015559;28;45650;-72
2022/06/19 05:24:56;;;;;;;;;8.50;8.50;;;;;21.88;54.24;100484.13;5015819;28;45351;-71
2022/06/19 05:27:22;;;;;;;;;10.00;8.00;;;;;22.00;54.42;100450.22;5015923;28;45486;-72
2022/06/19 05:29:47;;;;;;;;;13.50;9.50;;;;;22.04;55.12;100393.44;5015953;28;45333;-72
2022/06/19 05:32:12;;;;;;;;;9.50;9.50;;;;;22.01;55.22;100432.84;5025398;28;46978;-72
2022/06/19 05:34:38;;;;;;;;;7.50;7.50;;;;;21.98;54.41;100444.06;5015562;28;45471;-72
2022/06/19 05:37:04;;;;;;;;;8.25;6.00;;;;;21.97;53.95;100466.00;5018596;28;45404;-72
2022/06/19 05:39:30;;;;;;;;;9.25;7.50;;;;;21.82;54.32;100499.25;5015484;28;45595;-71
2022/06/19 05:41:57;;;;;;;;;6.75;5.25;;;;;21.74;53.82;100520.09;5015453;28;45829;-72
2022/06/19 05:44:25;;;;;;;;;10.25;8.50;;;;;21.74;55.08;100533.75;5015317;28;45303;-71
2022/06/19 05:46:53;;;;;;;;;6.00;6.00;;;;;21.74;54.85;100534.59;5015505;28;45430;-71
2022/06/19 05:49:19;;;;;;;;;3.75;3.75;;;;;21.77;53.75;100530.72;5015101;28;45515;-72
2022/06/19 05:51:45;;;;;;;;;6.25;4.50;;;;;21.71;53.89;100502.13;5015459;28;45380;-72
2022/06/19 05:54:10;;;;;;;;;7.25;6.00;;;;;21.61;54.25;100465.84;5015298;28;45397;-72
2022/06/19 05:56:36;;;;;;;;;4.50;2.75;;;;;21.61;53.72;100444.00;5015761;28;45360;-72
2022/06/19 05:59:02;;;;;;;;;6.75;4.75;;;;;21.57;53.82;100422.66;5015575;28;45352;-71
2022/06/19 06:01:29;;;;;;;;;8.50;6.00;;;;;21.53;54.16;100397.50;5013828;28;46008;-70
2022/06/19 06:03:55;;;;;;;;;5.00;5.00;;;;;21.48;53.77;100403.44;5015325;28;45416;-72
2022/06/19 06:06:26;;;;;;;;;3.75;3.75;;;;;21.52;54.73;100413.03;5015320;28;45396;-71
2022/06/19 06:08:52;;;;;;;;;8.50;5.25;;;;;21.60;53.73;100411.44;5015352;28;45206;-71
2022/06/19 06:11:19;;;;;;;;;4.25;4.25;;;;;21.64;54.00;100391.03;5013807;28;47438;-72
2022/06/19 06:13:44;;;;;;;;;4.50;4.25;;;;;21.71;54.61;100368.44;5015345;28;45534;-71
2022/06/19 06:16:15;;;;;;;;;5.00;3.75;;;;;21.84;52.93;100368.97;5015107;28;45341;-73
2022/06/19 06:18:41;;;;;;;;;4.75;4.75;;;;;21.97;52.54;100471.47;5014856;28;45360;-71
2022/06/19 06:21:12;;;;;;;;;3.00;3.00;;;;;22.07;52.18;100511.41;5014876;28;45941;-73
2022/06/19 06:23:38;;;;;;;;;4.25;3.75;;;;;22.12;51.96;100500.88;5014475;28;45419;-71
2022/06/19 06:26:04;;;;;;;;;3.50;3.50;;;;;22.15;52.01;100568.00;5014952;28;45315;-75
2022/06/19 06:28:31;;;;;;;;;3.25;3.25;;;;;22.05;51.49;100589.84;5014899;28;45519;-73
2022/06/19 06:30:57;;;;;;;;;5.50;5.50;;;;;22.11;52.37;100552.94;4996639;28;46175;-77
2022/06/19 06:33:24;;;;;;;;;3.00;3.00;;;;;22.05;53.20;100573.47;5023625;28;45321;-74
2022/06/19 06:35:50;;;;;;;;;5.25;3.75;;;;;21.94;52.90;100572.78;5019869;28;45486;-73
2022/06/19 06:38:15;;;;;;;;;6.50;5.00;;;;;21.81;53.33;100593.03;5013777;28;45336;-73
2022/06/19 06:40:40;;;;;;;;;3.50;3.50;;;;;21.77;53.81;100569.78;5014509;28;46266;-74
2022/06/19 06:43:06;;;;;;;;;6.00;4.25;;;;;21.75;53.56;100519.09;5014685;28;45358;-71
2022/06/19 06:45:31;;;;;;;;;5.50;4.75;;;;;21.82;54.39;100555.69;4996909;28;45455;-73
2022/06/19 06:47:56;;;;;;;;;3.25;3.25;;;;;21.82;54.16;100563.88;4996900;28;46451;-74
2022/06/19 06:50:22;;;;;;;;;4.00;4.00;;;;;21.84;53.34;100505.44;5014559;28;45578;-71
2022/06/19 06:52:48;;;;;;;;;6.00;4.00;;;;;21.75;52.90;100459.06;5014596;28;45470;-74
2022/06/19 06:55:14;;;;;;;;;5.75;4.25;;;;;21.77;53.35;100410.66;5014607;28;45749;-72
2022/06/19 06:57:40;;;;;;;;;4.50;4.25;;;;;21.71;53.00;100378.50;5014436;28;45184;-70
2022/06/19 07:00:07;;;;;;;;;4.75;4.75;;;;;21.67;53.57;100418.88;5014082;28;46305;-71
2022/06/19 07:02:34;;;;;;;;;4.00;3.50;;;;;21.68;54.24;100442.44;5014294;28;45348;-71
2022/06/19 07:04:59;;;;;;;;;4.50;3.00;;;;;21.78;53.66;100424.13;5014791;28;45351;-70
2022/06/19 07:07:25;;;;;;;;;6.00;5.50;;;;;21.80;52.77;100418.53;5021229;28;45570;-72
2022/06/19 07:09:50;;;;;;;;;8.25;4.75;;;;;21.82;52.54;100436.47;5020891;28;45333;-73
2022/06/19 07:12:15;;;;;;;;;4.00;4.00;;;;;21.88;52.76;100475.94;5020796;28;45425;-71
2022/06/19 07:14:41;;;;;;;;;4.00;3.00;;;;;21.96;52.37;100513.41;5022983;28;45349;-73
2022/06/19 07:17:06;;;;;;;;;2.75;2.50;;;;;21.96;52.43;100568.88;5022413;28;45423;-71
2022/06/19 07:19:31;;;;;;;;;3.50;2.50;;;;;22.03;52.21;100583.69;5018943;28;46545;-73
2022/06/19 07:21:57;;;;;;;;;4.00;2.50;;;;;22.03;51.97;100561.84;5024063;28;45360;-71
2022/06/19 07:24:23;;;;;;;;;3.50;2.00;;;;;22.04;51.92;100595.47;5028157;28;45440;-73
2022/06/19 07:26:48;;;;;;;;;3.25;3.25;;;;;21.88;51.71;100560.56;5002615;28;45506;-72
2022/06/19 07:29:14;;;;;;;;;4.75;3.00;;;;;21.90;51.85;100594.03;5019258;28;46405;-72
2022/06/19 07:31:39;;;;;;;;;6.00;3.25;;;;;21.99;52.11;100671.50;5022897;28;45472;-73
2022/06/19 07:34:05;;;;;;;;;5.25;3.25;;;;;21.80;51.90;100757.78;5023219;28;45428;-72
2022/06/19 07:36:32;;;;;;;;;4.00;3.00;;;;;21.63;53.11;100743.97;5020764;28;45523;-75
2022/06/19 07:38:57;;;;;;;;;8.25;3.50;;;;;21.33;53.47;100671.31;5021821;28;45674;-75
2022/06/19 07:41:23;;;;;;;;;5.00;5.00;;;;;21.14;53.37;100702.94;5013320;28;45401;-72
2022/06/19 07:43:50;;;;;;;;;5.00;3.75;;;;;21.00;54.22;100703.34;4995952;28;45318;-74
2022/06/19 07:46:16;;;;;;;;;6.50;5.00;;;;;20.86;54.19;100702.81;5014158;28;45491;-73
2022/06/19 07:51:26;;;;;;;;;5.00;3.00;;;;;20.67;54.77;100662.75;5013868;28;45389;-76
2022/06/19 07:53:52;;;;;;;;;4.50;2.75;;;;;20.81;54.77;100661.50;5014009;28;45850;-73
2022/06/19 07:56:17;;;;;;;;;5.00;5.00;;;;;20.92;54.79;100681.38;5013599;28;45376;-74
2022/06/19 07:58:43;;;;;;;;;6.25;3.25;;;;;21.02;54.59;100741.34;5014128;28;45277;-79
2022/06/19 08:01:08;;;;;;;;;6.75;5.00;;;;;21.00;53.91;100844.22;4996039;28;46387;-73
2022/06/19 08:03:34;;;;;;;;;5.00;3.50;;;;;20.67;55.01;100810.72;5013779;28;45421;-75
2022/06/19 08:05:59;;;;;;;;;2.75;2.75;;;;;20.69;55.02;100742.47;5013608;28;45396;-71
2022/06/19 08:08:28;;;;;;;;;3.00;3.00;;;;;20.79;55.14;100743.38;5013176;28;45265;-71
2022/06/19 08:10:55;;;;;;;;;5.75;4.00;;;;;20.89;55.04;100732.53;5013289;28;45330;-71
2022/06/19 08:13:23;;;;;;;;;8.25;4.00;;;;;20.96;54.34;100685.53;5013361;28;45441;-73
2022/06/19 08:15:56;;;;;;;;;7.00;4.00;;;;;21.05;54.52;100656.56;5013168;28;45557;-69
2022/06/19 08:18:22;;;;;;;;;6.00;4.25;;;;;21.24;54.21;100650.34;5012138;28;48343;-71
2022/06/19 08:20:48;;;;;;;;;5.00;4.75;;;;;21.34;53.66;100635.72;5011743;28;45468;-69
2022/06/19 08:23:13;;;;;;;;;5.00;5.00;;;;;21.46;53.14;100634.56;5013330;28;45427;-70
2022/06/19 08:25:39;;;;;;;;;6.50;5.00;;;;;21.53;52.71;100632.13;5016127;28;45619;-70
2022/06/19 08:28:05;;;;;;;;;4.25;4.25;;;;;21.60;52.65;100605.13;5016362;28;46280;-70
2022/06/19 08:30:36;;;;;;;;;6.75;6.00;;;;;21.65;52.56;100611.00;5018394;28;45455;-70
2022/06/19 08:33:03;;;;;;;;;8.75;5.25;;;;;21.66;52.47;100593.63;5016348;28;45334;-73
2022/06/19 08:35:32;;;;;;;;;4.75;4.75;;;;;21.70;52.66;100585.00;5019354;28;45915;-73
2022/06/19 08:38:03;;;;;;;;;8.50;5.00;;;;;21.83;52.45;100562.88;4998455;28;46366;-70
2022/06/19 08:40:53;;;;;;;;;7.00;5.00;;;;;21.91;52.24;100560.28;5016309;28;45385;-76
2022/06/19 08:43:48;;;;;;;;;5.75;4.25;;;;;21.86;51.82;100548.94;5016673;28;45416;-70
2022/06/19 08:46:37;;;;;;;;;7.50;6.50;;;;;21.87;51.92;100556.97;5016202;28;45281;-71
2022/06/19 08:49:09;;;;;;;;;5.50;5.50;;;;;21.88;51.92;100538.72;5016401;28;45560;-71
2022/06/19 08:52:04;;;;;;;;;4.50;4.50;;;;;21.94;52.02;100531.84;5016335;28;45360;-72
2022/06/19 08:54:29;;;;;;;;;7.50;6.00;;;;;21.98;51.89;100538.72;4996635;28;45445;-72
2022/06/19 08:57:03;;;;;;;;;5.50;4.50;;;;;21.98;52.01;100553.25;4998474;28;45226;-71
2022/06/19 08:59:34;;;;;;;;;6.00;6.00;;;;;22.00;51.81;100551.22;5016228;28;46627;-71
2022/06/19 09:02:18;;;;;;;;;5.00;5.00;;;;;22.11;51.92;100552.94;5016191;28;45331;-69
2022/06/19 09:07:55;;;;;;;;;5.50;5.50;;;;;22.38;51.77;100579.41;5015514;28;45356;-72
2022/06/19 09:10:45;;;;;;;;;10.50;6.75;;;;;22.54;51.16;100599.59;5016047;28;45422;-71
2022/06/19 09:13:38;;;;;;;;;8.50;5.25;;;;;22.65;50.54;100617.69;5015781;28;45362;-70
2022/06/19 09:16:35;;;;;;;;;7.75;7.75;;;;;22.59;50.52;100635.53;5016043;28;45329;-71
2022/06/19 09:19:14;;;;;;;;;7.75;5.00;;;;;22.68;50.71;100655.66;5016193;28;45397;-72
2022/06/19 09:21:51;;;;;;;;;5.00;5.00;;;;;22.76;50.43;100674.91;5015529;28;45420;-72
2022/06/19 09:24:38;;;;;;;;;9.00;6.00;;;;;22.77;50.31;100684.84;5015403;28;45386;-72
2022/06/19 09:27:04;;;;;;;;;6.75;4.75;;;;;22.75;50.26;100675.94;5015808;28;45359;-72
2022/06/19 09:29:55;;;;;;;;;8.50;7.00;;;;;22.82;50.15;100685.25;5015291;28;45361;-71
2022/06/19 09:32:29;;;;;;;;;8.25;8.00;;;;;22.80;49.83;100672.72;5026237;28;46428;-72
2022/06/19 09:35:05;;;;;;;;;12.75;7.50;;;;;22.60;50.08;100670.06;5017213;28;45558;-70
2022/06/19 09:37:38;;;;;;;;;8.75;8.25;;;;;22.73;49.96;100696.19;4997666;28;45436;-72
2022/06/19 09:40:10;;;;;;;;;10.25;7.00;;;;;22.70;50.66;100691.03;5015120;28;45406;-72
2022/06/19 09:42:43;;;;;;;;;7.00;7.00;;;;;22.73;50.75;100694.31;5014022;28;45417;-71
2022/06/19 09:45:36;;;;;;;;;8.50;8.50;;;;;22.72;50.57;100697.19;5015506;28;45374;-72
2022/06/19 09:48:14;;;;;;;;;8.50;8.50;;;;;22.82;50.75;100687.97;5015065;28;45416;-71
2022/06/19 09:50:46;;;;;;;;;10.75;10.75;;;;;22.88;50.54;100690.09;5015319;28;45393;-70
2022/06/19 09:53:30;;;;;;;;;9.25;9.25;;;;;22.92;50.88;100693.41;5015216;28;46469;-71
2022/06/19 09:56:05;;;;;;;;;9.00;9.00;;;;;22.89;51.04;100691.81;5012007;28;45426;-71
2022/06/19 09:58:49;;;;;;;;;10.75;9.50;;;;;22.83;51.46;100688.84;4997512;28;45814;-69
2022/06/19 10:01:15;;;;;;;;;12.50;9.25;;;;;22.69;51.86;100686.56;5015076;28;45423;-70
2022/06/19 10:03:54;;;;;;;;;9.75;8.75;;;;;22.53;52.73;100679.00;5015218;28;45376;-70
2022/06/19 10:06:29;;;;;;;;;10.75;10.75;;;;;22.49;52.81;100674.84;5014667;28;45391;-70
2022/06/19 10:09:15;;;;;;;;;8.75;7.50;;;;;22.47;52.82;100674.13;5015286;28;45304;-74
2022/06/19 10:11:42;;;;;;;;;10.75;9.00;;;;;22.53;52.65;100670.81;5014777;28;46535;-71
2022/06/19 10:14:21;;;;;;;;;16.25;14.75;;;;;22.50;52.03;100665.63;5014018;28;45496;-70
2022/06/19 10:17:04;;;;;;;;;8.50;8.50;;;;;22.56;52.50;100675.97;4996544;28;45362;-72
2022/06/19 10:19:46;;;;;;;;;10.75;10.25;;;;;22.65;52.85;100666.88;5013944;28;45467;-70
2022/06/19 10:22:53;;;;;;;;;13.00;10.50;;;;;22.77;52.26;100659.38;4995948;28;47405;-72
2022/06/19 10:25:25;;;;;;;;;16.00;14.75;;;;;22.85;52.19;100637.63;5013965;28;45358;-71
2022/06/19 10:28:28;;;;;;;;;14.00;13.00;;;;;22.85;51.83;100627.53;5014308;28;45341;-70
2022/06/19 10:31:11;;;;;;;;;5.75;5.00;;;;;22.88;52.14;100626.38;5016357;28;45505;-70
2022/06/19 10:33:49;;;;;;;;;12.25;10.75;;;;;22.87;52.43;100633.72;5020712;28;45504;-70
2022/06/19 10:36:23;;;;;;;;;14.25;12.25;;;;;22.93;52.22;100632.25;5018743;28;46362;-72
2022/06/19 10:39:25;;;;;;;;;13.75;11.00;;;;;22.99;52.08;100628.91;5013834;28;45337;-71
2022/06/19 10:42:28;;;;;;;;;14.75;12.00;;;;;23.10;51.94;100630.56;5014448;28;45322;-70
2022/06/19 10:45:07;;;;;;;;;12.75;12.75;;;;;23.05;52.02;100614.63;5014483;28;45162;-70
2022/06/19 10:47:54;;;;;;;;;14.75;13.00;;;;;23.26;51.28;100638.94;4995988;28;46394;-69
2022/06/19 10:50:23;;;;;;;;;14.00;12.50;;;;;23.23;51.26;100642.84;5014439;28;45339;-70
2022/06/19 10:53:33;;;;;;;;;19.25;15.75;;;;;23.22;51.34;100638.38;5014380;28;45431;-70
2022/06/19 10:56:07;;;;;;;;;13.75;13.75;;;;;23.26;51.42;100639.81;4997774;28;45472;-70
2022/06/19 10:58:33;;;;;;;;;14.25;10.75;;;;;23.29;51.21;100638.66;5013873;28;46230;-72
2022/06/19 11:01:05;;;;;;;;;12.75;12.00;;;;;23.35;50.89;100636.16;4996392;28;45397;-72
2022/06/19 11:06:30;;;;;;;;;14.25;12.75;;;;;23.48;50.96;100638.50;5013883;28;45439;-74
2022/06/19 11:09:03;;;;;;;;;15.25;14.00;;;;;23.48;51.06;100621.25;5013943;28;45335;-74
2022/06/19 11:11:33;;;;;;;;;21.25;16.50;;;;;23.58;50.99;100639.31;5014135;28;45416;-70
2022/06/19 11:14:07;;;;;;;;;14.25;14.00;;;;;23.65;51.05;100640.41;5013681;28;45330;-71
2022/06/19 11:16:50;;;;;;;;;15.25;15.00;;;;;23.67;50.46;100641.09;4993887;28;45703;-69
2022/06/19 11:19:43;;;;;;;;;19.75;14.75;;;;;23.69;50.68;100652.75;5012844;28;45527;-74
2022/06/19 11:22:25;;;;;;;;;12.50;12.50;;;;;23.77;50.89;100649.25;5013853;28;45400;-74
2022/06/19 11:24:52;;;;;;;;;15.25;14.50;;;;;23.84;50.50;100639.38;5014020;28;45467;-71
2022/06/19 11:27:21;;;;;;;;;12.75;12.50;;;;;23.91;50.35;100645.94;5013612;28;45432;-70
2022/06/19 11:29:51;;;;;;;;;16.75;14.25;;;;;23.87;49.82;100619.91;5013936;28;45487;-72
2022/06/19 11:32:21;;;;;;;;;12.25;10.75;;;;;23.95;49.82;100625.44;5004153;28;45373;-70
2022/06/19 11:35:01;;;;;;;;;12.50;12.50;;;;;23.95;50.03;100636.41;4993501;28;45527;-69
2022/06/19 11:37:29;;;;;;;;;14.25;13.50;;;;;24.00;50.24;100646.84;4994412;28;45416;-72
2022/06/19 11:39:54;;;;;;;;;13.00;11.25;;;;;24.02;50.24;100633.88;4994368;28;45377;-70
2022/06/19 11:42:44;;;;;;;;;11.75;11.75;;;;;23.99;49.89;100618.59;4993482;28;45317;-71
2022/06/19 11:45:13;;;;;;;;;14.25;13.25;;;;;24.00;49.57;100628.53;4994220;28;45248;-71
2022/06/19 11:47:47;;;;;;;;;16.50;13.50;;;;;24.00;49.57;100622.22;4994115;28;45476;-70
2022/06/19 11:50:20;;;;;;;;;6.00;6.00;;;;;24.02;49.50;100625.66;4994214;28;45330;-70
2022/06/19 11:52:51;;;;;;;;;13.75;11.00;;;;;24.03;49.36;100614.53;4976078;28;45393;-71
2022/06/19 11:55:24;;;;;;;;;8.00;8.00;;;;;23.99;49.13;100596.69;4993101;28;45480;-72
2022/06/19 11:57:54;;;;;;;;;13.50;12.00;;;;;23.92;49.23;100586.53;4994772;28;45241;-76
2022/06/19 12:00:35;;;;;;;;;11.50;11.00;;;;;23.88;49.85;100586.03;4997196;28;46276;-70
2022/06/19 12:03:13;;;;;;;;;10.25;9.75;;;;;23.84;49.68;100562.72;4997225;28;45409;-69
2022/06/19 12:05:49;;;;;;;;;11.50;10.25;;;;;23.90;49.70;100583.13;4997654;28;45359;-71
2022/06/19 12:08:23;;;;;;;;;13.25;11.25;;;;;23.74;49.28;100551.84;4997049;28;45375;-68
2022/06/19 12:10:57;;;;;;;;;12.75;8.75;;;;;23.60;49.55;100563.38;4996348;28;46216;-69
2022/06/19 12:13:27;;;;;;;;;7.50;7.50;;;;;23.45;50.03;100558.59;4996213;28;45404;-70
2022/06/19 12:16:10;;;;;;;;;9.00;8.00;;;;;23.44;50.76;100551.41;4997139;28;45470;-68
2022/06/19 12:18:36;;;;;;;;;11.50;10.50;;;;;23.62;49.63;100565.97;4996783;28;45351;-70
2022/06/19 12:21:15;;;;;;;;;9.25;9.25;;;;;23.64;49.59;100547.53;4997900;28;45434;-70
2022/06/19 12:23:49;;;;;;;;;9.00;7.75;;;;;23.61;49.56;100540.47;5001488;28;45585;-70
2022/06/19 12:26:35;;;;;;;;;15.75;10.00;;;;;23.60;49.24;100526.94;5001463;28;45389;-68
2022/06/19 12:29:11;;;;;;;;;13.00;9.25;;;;;23.56;48.86;100552.94;4996799;28;45337;-69
2022/06/19 12:31:38;;;;;;;;;8.50;8.50;;;;;23.45;49.17;100542.19;5008396;28;46096;-68
2022/06/19 12:34:18;;;;;;;;;8.50;7.75;;;;;23.67;49.38;100569.06;5019975;28;45459;-70
2022/06/19 12:36:43;;;;;;;;;10.00;7.25;;;;;23.77;48.87;100570.72;5022362;28;45311;-71
2022/06/19 12:39:22;;;;;;;;;15.00;8.50;;;;;23.85;47.95;100558.09;5016397;28;45527;-70
2022/06/19 12:42:08;;;;;;;;;10.00;8.50;;;;;23.85;48.23;100548.00;5016756;28;46389;-67
2022/06/19 12:45:05;;;;;;;;;8.75;8.25;;;;;23.86;47.91;100530.56;5009854;28;45361;-70
2022/06/19 12:48:03;;;;;;;;;9.50;8.75;;;;;23.88;48.66;100528.53;4989096;28;45618;-70
2022/06/19 12:50:53;;;;;;;;;8.00;8.00;;;;;23.93;48.17;100530.78;5014868;28;45677;-70
2022/06/19 12:54:00;;;;;;;;;8.50;8.50;;;;;23.93;47.79;100525.28;5014450;28;45415;-71
2022/06/19 12:56:46;;;;;;;;;10.00;9.00;;;;;23.91;48.04;100527.31;5001533;28;45491;-71
2022/06/19 12:59:20;;;;;;;;;8.25;6.25;;;;;24.07;48.25;100528.28;5014880;28;45498;-70
2022/06/19 13:02:00;;;;;;;;;8.00;6.75;;;;;24.48;47.87;100531.28;5014829;28;45661;-70
2022/06/19 13:04:38;;;;;;;;;10.00;10.00;;;;;24.80;46.38;100527.78;5014511;28;46308;-72
2022/06/19 13:07:25;;;;;;;;;10.00;6.50;;;;;25.04;46.06;100514.16;5012937;28;45541;-73
2022/06/19 13:10:00;;;;;;;;;8.75;8.75;;;;;25.29;45.82;100522.41;5009023;28;45563;-72
2022/06/19 13:12:56;;;;;;;;;8.75;8.75;;;;;25.67;44.65;100520.91;5014532;28;45233;-71
2022/06/19 13:15:33;;;;;;;;;8.00;8.00;;;;;25.95;44.45;100512.09;5013263;28;45980;-69
2022/06/19 13:18:24;;;;;;;;;8.75;8.75;;;;;26.33;43.58;100510.47;5013612;28;45435;-70
2022/06/19 13:20:57;;;;;;;;;13.00;9.25;;;;;26.55;42.35;100519.81;5015846;28;46487;-71
2022/06/19 13:23:51;;;;;;;;;7.25;7.00;;;;;26.61;43.02;100515.50;5015736;28;45356;-71
2022/06/19 13:29:29;;;;;;;;;7.00;6.75;;;;;26.97;42.15;100515.81;5014562;28;45365;-73
2022/06/19 13:32:13;;;;;;;;;13.50;8.25;;;;;27.08;41.65;100493.41;5012419;28;45564;-72
2022/06/19 13:34:59;;;;;;;;;7.50;7.50;;;;;27.30;41.32;100489.81;5005234;28;45359;-71
2022/06/19 13:37:49;;;;;;;;;11.00;8.00;;;;;27.57;40.76;100491.13;5014727;28;46270;-71
2022/06/19 13:40:23;;;;;;;;;9.25;8.75;;;;;27.68;40.24;100484.31;5017459;28;45431;-73
2022/06/19 13:42:52;;;;;;;;;7.75;7.75;;;;;27.93;40.05;100487.66;5008546;28;45371;-70
2022/06/19 13:46:08;;;;;;;;;7.00;7.00;;;;;28.27;39.77;100478.88;5020815;28;45391;-72
2022/06/19 13:49:00;;;;;;;;;6.00;6.00;;;;;28.52;39.08;100469.22;4981517;28;45395;-74
2022/06/19 13:51:35;;;;;;;;;9.75;6.75;;;;;28.76;38.82;100476.28;5020107;28;45808;-71
2022/06/19 13:54:18;;;;;;;;;10.00;8.00;;;;;29.01;38.17;100476.84;5014869;28;45272;-72
2022/06/19 13:56:49;;;;;;;;;8.25;8.00;;;;;28.96;38.21;100475.50;5025219;28;45501;-72
2022/06/19 13:59:33;;;;;;;;;9.75;8.00;;;;;28.79;37.86;100464.91;5014809;28;45474;-68
2022/06/19 14:02:07;;;;;;;;;8.00;8.00;;;;;28.83;38.38;100469.00;5006789;28;45477;-70
2022/06/19 14:04:47;;;;;;;;;11.25;9.25;;;;;29.09;38.25;100465.69;4996544;28;45504;-71
2022/06/19 14:07:40;;;;;;;;;10.00;10.00;;;;;29.46;37.46;100450.72;5014428;28;45395;-69
2022/06/19 14:10:23;;;;;;;;;7.00;7.00;;;;;29.82;36.96;100456.13;5014396;28;45473;-71
2022/06/19 14:13:01;;;;;;;;;9.25;9.25;;;;;30.22;36.33;100468.28;5014589;28;45436;-70
2022/06/19 14:15:54;;;;;;;;;14.75;8.75;;;;;30.39;36.00;100469.66;5014657;28;45306;-72
2022/06/19 14:18:34;;;;;;;;;4.25;4.25;;;;;30.72;35.66;100464.28;5023180;28;45357;-69
2022/06/19 14:21:15;;;;;;;;;17.25;10.50;;;;;31.04;34.63;100446.91;5013060;28;45758;-69
2022/06/19 14:23:49;;;;;;;;;12.00;12.00;;;;;31.28;34.09;100430.78;5014151;28;45372;-68
2022/06/19 14:26:26;;;;;;;;;8.00;8.00;;;;;31.26;33.69;100442.06;5013651;28;45499;-71
2022/06/19 14:29:06;;;;;;;;;14.50;10.00;;;;;31.42;33.43;100443.56;5012883;28;45538;-69
2022/06/19 14:31:31;;;;;;;;;12.50;9.50;;;;;31.57;33.39;100445.03;5018370;28;45679;-68
2022/06/19 14:33:57;;;;;;;;;9.50;8.75;;;;;31.87;32.74;100448.25;5017415;28;45242;-69
2022/06/19 14:36:23;;;;;;;;;9.00;8.00;;;;;31.90;32.69;100447.78;5017939;28;45297;-71
2022/06/19 14:38:53;;;;;;;;;8.25;8.00;;;;;31.93;33.23;100460.38;4992666;28;45675;-70
2022/06/19 14:41:18;;;;;;;;;9.50;7.00;;;;;32.19;33.42;100457.56;4994625;28;48616;-69
2022/06/19 14:44:03;;;;;;;;;9.00;8.00;;;;;32.62;32.24;100448.66;5012800;28;45913;-70
2022/06/19 14:47:02;;;;;;;;;2.00;2.00;;;;;32.28;32.40;100447.94;5020361;28;45409;-67
2022/06/19 14:50:13;;;;;;;;;10.00;8.50;;;;;31.89;32.22;100436.94;4951050;28;45527;-68
2022/06/19 14:52:57;;;;;;;;;7.75;6.75;;;;;31.37;33.24;100429.50;4992134;28;45930;-71
2022/06/19 14:55:49;;;;;;;;;8.50;8.50;;;;;30.92;34.31;100442.19;4994127;28;45367;-74
2022/06/19 14:58:24;;;;;;;;;14.25;10.25;;;;;30.57;34.51;100427.63;5013589;28;45458;-73
2022/06/19 15:00:59;;;;;;;;;9.50;9.50;;;;;30.37;34.94;100428.38;5012616;28;45325;-69
2022/06/19 15:03:30;;;;;;;;;5.25;5.00;;;;;30.18;35.37;100412.56;5012438;28;46262;-69
2022/06/19 15:06:05;;;;;;;;;8.00;8.00;;;;;29.91;36.08;100418.97;5012011;28;45448;-70
2022/06/19 15:08:35;;;;;;;;;6.50;6.00;;;;;29.53;36.69;100412.97;5000047;28;45282;-68
2022/06/19 15:11:07;;;;;;;;;8.25;8.25;;;;;29.59;37.00;100412.19;5012551;28;45585;-71
2022/06/19 15:13:42;;;;;;;;;9.00;9.00;;;;;29.64;37.15;100399.44;5012740;28;46045;-70
2022/06/19 15:16:30;;;;;;;;;9.25;8.75;;;;;29.81;36.89;100410.19;5012039;28;45316;-70
2022/06/19 15:19:06;;;;;;;;;12.00;10.25;;;;;29.83;36.41;100403.41;5013426;28;45419;-68
2022/06/19 15:21:55;;;;;;;;;15.25;13.00;;;;;29.85;36.89;100409.59;4994008;28;47168;-68
2022/06/19 15:24:47;;;;;;;;;14.50;11.50;;;;;29.71;37.15;100400.34;5004412;28;46250;-70
2022/06/19 15:27:25;;;;;;;;;15.75;13.50;;;;;29.80;37.24;100409.31;5011021;28;45292;-69
2022/06/19 15:29:58;;;;;;;;;10.75;8.75;;;;;29.77;37.25;100398.69;5012076;28;45423;-69
2022/06/19 15:32:23;;;;;;;;;14.50;11.75;;;;;29.76;37.39;100390.59;5022307;28;45585;-70
2022/06/19 15:34:59;;;;;;;;;11.00;11.00;;;;;29.52;37.71;100397.47;5019876;28;45532;-69
2022/06/19 15:37:50;;;;;;;;;11.75;8.00;;;;;29.27;37.65;100394.25;5018053;28;45886;-68
2022/06/19 15:40:15;;;;;;;;;14.50;12.25;;;;;29.02;38.70;100388.28;5018372;28;45617;-70
2022/06/19 15:42:43;;;;;;;;;13.50;11.00;;;;;28.67;39.06;100373.47;5018133;28;45510;-71
2022/06/19 15:45:09;;;;;;;;;11.25;11.25;;;;;28.54;39.60;100381.63;5000012;28;45635;-66
2022/06/19 15:47:55;;;;;;;;;9.50;9.50;;;;;28.44;40.30;100384.72;5018463;28;45368;-74
2022/06/19 15:50:30;;;;;;;;;14.25;10.75;;;;;28.54;40.45;100385.25;5000673;28;45404;-73
2022/06/19 15:53:00;;;;;;;;;9.75;9.25;;;;;28.72;39.64;100387.56;5000451;28;46207;-71
2022/06/19 15:55:41;;;;;;;;;14.75;13.00;;;;;28.94;39.23;100378.25;5032774;28;45358;-73
2022/06/19 15:58:17;;;;;;;;;11.50;11.50;;;;;29.30;38.51;100377.28;5019753;28;45382;-71
2022/06/19 16:00:55;;;;;;;;;14.75;14.25;;;;;29.69;37.72;100388.63;5007316;28;45403;-70
2022/06/19 16:03:31;;;;;;;;;14.50;11.25;;;;;30.01;37.98;100400.13;5018059;28;45328;-70
2022/06/19 16:06:08;;;;;;;;;18.25;12.00;;;;;30.17;36.80;100383.19;5010332;28;45819;-72
2022/06/19 16:08:40;;;;;;;;;13.00;13.00;;;;;30.38;36.89;100393.25;5017763;28;45529;-70
2022/06/19 16:11:06;;;;;;;;;17.00;14.00;;;;;30.52;36.58;100388.66;5018209;28;45336;-72
2022/06/19 16:13:36;;;;;;;;;14.50;13.50;;;;;30.70;36.00;100387.03;5024863;28;45393;-69
2022/06/19 16:16:14;;;;;;;;;15.75;14.25;;;;;30.74;35.88;100371.69;5022325;28;46243;-72
2022/06/19 16:18:40;;;;;;;;;15.50;13.00;;;;;30.86;36.07;100380.22;5006626;28;45376;-70
2022/06/19 16:21:10;;;;;;;;;14.25;13.50;;;;;30.91;36.06;100382.34;5020703;28;45391;-73
2022/06/19 16:23:45;;;;;;;;;12.25;11.00;;;;;30.79;36.13;100377.44;5017462;28;45368;-72
2022/06/19 16:26:32;;;;;;;;;18.00;15.00;;;;;30.86;36.15;100393.22;5018713;28;46066;-73
2022/06/19 16:29:02;;;;;;;;;15.50;14.00;;;;;30.82;35.70;100392.78;5012628;28;45446;-68
2022/06/19 16:31:32;;;;;;;;;16.00;13.00;;;;;30.86;36.32;100390.44;5020776;28;45577;-72
2022/06/19 16:34:01;;;;;;;;;14.25;11.50;;;;;30.91;36.14;100397.03;5016570;28;45469;-69